Surface/Precipitation History
07/24/2017 16:36  to  7/25/2017 16:36
Change End Date:
Date/Time
(MDT)
Sf
Temp Chem Water Layer Surface Precipitation
Sfc Pvt Sub Frz Factor Pct Dpth DpthThk IcePct Cond Salin FI Type Intens Accum Rate
07/25/2017 16:25 Dry 83.1F - 77F - - - - - - 36 mhos 2274 - None None - -
07/25/2017 16:21 Dry 83.7F - 77F - - - - - - 36 mhos 2264 - None None - -
07/25/2017 16:11 Dry 84.4F - 77F - - - - - - 36 mhos 2234 - None None - -
07/25/2017 16:10 Dry 84.6F - 77F - - - - - - 36 mhos 2231 - None None - -
07/25/2017 16:01 Dry 84.4F - 77F - - - - - - 36 mhos 2249 - None None - -
07/25/2017 15:55 Dry 82.8F - 77F - - - - - - 36 mhos 2283 - None None - -
07/25/2017 15:51 Dry 82.6F - 76F - - - - - - 36 mhos 2286 - None None - -
07/25/2017 15:41 Dry 83.7F - 77F - - - - - - 36 mhos 2261 - None None - -
07/25/2017 15:40 Dry 83.7F - 77F - - - - - - 36 mhos 2261 - None None - -
07/25/2017 15:30 Dry 82.8F - 76F - - - - - - 36 mhos 2283 - None None - -
07/25/2017 15:25 Dry 81.7F - 76F - - - - - - 36 mhos 2302 - None None - -
07/25/2017 15:20 Dry 82.2F - 76F - - - - - - 36 mhos 2292 - None None - -
07/25/2017 15:10 Dry 83.7F - 76F - - - - - - 36 mhos 2249 - None None - -
07/25/2017 15:10 Dry 83.7F - 76F - - - - - - 36 mhos 2249 - None None - -
07/25/2017 15:00 Dry 86.2F - 76F - - - - - - 36 mhos 2184 - None None - -
Date/Time
(MDT)
Sf
Temp Chem Water Layer Surface Precipitation
Sfc Pvt Sub Frz Factor Pct Dpth DpthThk IcePct Cond Salin FI Type Intens Accum Rate
07/25/2017 14:55 Dry 86.2F - 76F - - - - - - 36 mhos 2184 - None None - -
07/25/2017 14:50 Dry 86.9F - 76F - - - - - - 36 mhos 2171 - None None - -
07/25/2017 14:40 Dry 85.8F - 76F - - - - - - 36 mhos 2204 - None None - -
07/25/2017 14:40 Dry 85.8F - 76F - - - - - - 36 mhos 2204 - None None - -
07/25/2017 14:30 Dry 84.6F - 76F - - - - - - 36 mhos 2246 - None None - -
07/25/2017 14:25 Dry 84.0F - 76F - - - - - - 36 mhos 2255 - None None - -
07/25/2017 14:20 Dry 82.2F - 76F - - - - - - 36 mhos 2308 - None None - -
07/25/2017 14:10 Dry 79.0F - 76F - - - - - - 36 mhos 2393 - None None - -
07/25/2017 14:10 Dry 79.0F - 76F - - - - - - 36 mhos 2393 - None None - -
07/25/2017 14:00 Dry 78.6F - 76F - - - - - - 36 mhos 2403 - None None - -
07/25/2017 13:55 Dry 78.6F - 76F - - - - - - 36 mhos 2403 - None None - -
07/25/2017 13:50 Dry 78.6F - 76F - - - - - - 36 mhos 2400 - None None - -
07/25/2017 13:40 Dry 78.8F - 76F - - - - - - 36 mhos 2396 - None None - -
07/25/2017 13:40 Dry 78.8F - 76F - - - - - - 36 mhos 2396 - None None - -
07/25/2017 13:30 Dry 79.2F - 76F - - - - - - 36 mhos 2389 - None None - -
Date/Time
(MDT)
Sf
Temp Chem Water Layer Surface Precipitation
Sfc Pvt Sub Frz Factor Pct Dpth DpthThk IcePct Cond Salin FI Type Intens Accum Rate
07/25/2017 13:25 Dry 79.5F - 76F - - - - - - 36 mhos 2366 - None None - -
07/25/2017 13:20 Dry 80.2F - 76F - - - - - - 36 mhos 2350 - None None - -
07/25/2017 13:10 Dry 81.9F - 76F - - - - - - 36 mhos 2298 - None None - -
07/25/2017 13:10 Dry 81.9F - 76F - - - - - - 36 mhos 2298 - None None - -
07/25/2017 13:00 Dry 83.3F - 76F - - - - - - 36 mhos 2270 - None None - -
07/25/2017 12:55 Dry 82.6F - 76F - - - - - - 36 mhos 2286 - None None - -
07/25/2017 12:49 Dry 82.6F - 76F - - - - - - 36 mhos 2286 - None None - -
07/25/2017 12:40 Dry 83.3F - 76F - - - - - - 36 mhos 2270 - None None - -
07/25/2017 12:39 Dry 83.3F - 76F - - - - - - 36 mhos 2270 - None None - -
07/25/2017 12:29 Dry 85.5F - 76F - - - - - - 36 mhos 2213 - None None - -
07/25/2017 12:25 Dry 87.8F - 76F - - - - - - 36 mhos 2153 - None None - -
07/25/2017 12:19 Dry 90.5F - 76F - - - - - - 35 mhos 2092 - None None - -
07/25/2017 12:10 Dry 87.1F - 76F - - - - - - 36 mhos 2167 - None None - -
07/25/2017 12:09 Dry 87.1F - 76F - - - - - - 36 mhos 2167 - None None - -
07/25/2017 11:59 Dry 83.8F - 76F - - - - - - 36 mhos 2258 - None None - -
Date/Time
(MDT)
Sf
Temp Chem Water Layer Surface Precipitation
Sfc Pvt Sub Frz Factor Pct Dpth DpthThk IcePct Cond Salin FI Type Intens Accum Rate
07/25/2017 11:55 Dry 81.3F - 76F - - - - - - 36 mhos 2327 - None None - -
07/25/2017 11:49 Dry 80.1F - 76F - - - - - - 36 mhos 2353 - None None - -
07/25/2017 11:40 Dry 78.1F - 76F - - - - - - 36 mhos 2395 - None None - -
07/25/2017 11:39 Dry 78.1F - 77F - - - - - - 36 mhos 2395 - None None - -
07/25/2017 11:29 Dry 78.1F - 77F - - - - - - 36 mhos 2380 - None None - -
07/25/2017 11:25 Dry 78.3F - 77F - - - - - - 36 mhos 2360 - None None - -
07/25/2017 11:19 Dry 75.7F - 77F - - - - - - 36 mhos 2432 - Yes - - -
07/25/2017 11:10 Dry 74.3F - 77F - - - - - - 37 mhos 2539 - None None - -
07/25/2017 11:09 Dry 74.1F - 77F - - - - - - 37 mhos 2542 - None None - -
07/25/2017 10:59 Dry 74.5F - 77F - - - - - - 37 mhos 2531 - None None - -
07/25/2017 10:55 Dry 74.7F - 77F - - - - - - 37 mhos 2527 - None None - -
07/25/2017 10:49 Dry 75.6F - 77F - - - - - - 37 mhos 2509 - None None - -
07/25/2017 10:40 Dry 77.0F - 77F - - - - - - 37 mhos 2472 - None None - -
07/25/2017 10:39 Dry 77.0F - 77F - - - - - - 37 mhos 2472 - None None - -
07/25/2017 10:29 Dry 76.5F - 77F - - - - - - 37 mhos 2466 - None None - -
Date/Time
(MDT)
Sf
Temp Chem Water Layer Surface Precipitation
Sfc Pvt Sub Frz Factor Pct Dpth DpthThk IcePct Cond Salin FI Type Intens Accum Rate
07/25/2017 10:25 Dry 75.2F - 77F - - - - - - 37 mhos 2498 - None None - -
07/25/2017 10:18 Dry 73.6F - 77F - - - - - - 37 mhos 2537 - None None - -
07/25/2017 10:10 Dry 72.5F - 77F - - - - - - 37 mhos 2562 - None None - -
07/25/2017 10:08 Dry 72.5F - 77F - - - - - - 37 mhos 2562 - None None - -
07/25/2017 09:58 Dry 72.1F - 77F - - - - - - 37 mhos 2593 - None None - -
07/25/2017 09:55 Dry 71.6F - 77F - - - - - - 37 mhos 2604 - None None - -
07/25/2017 09:48 Dry 70.2F - 77F - - - - - - 37 mhos 2622 - None None - -
07/25/2017 09:40 Dry 68.9F - 77F - - - - - - 37 mhos 2655 - None None - -
07/25/2017 09:38 Dry 68.7F - 77F - - - - - - 36 mhos 2644 - None None - -
07/25/2017 09:28 Dry 68.5F - 77F - - - - - - 36 mhos 2630 - None None - -
07/25/2017 09:25 Dry 68.4F - 77F - - - - - - 36 mhos 2653 - None None - -
07/25/2017 09:18 Dry 67.1F - 78F - - - - - - 36 mhos 2668 - None None - -
07/25/2017 09:10 Dry 65.1F - 78F - - - - - - 35 mhos 2614 - None None - -
07/25/2017 09:08 Dry 64.8F - 78F - - - - - - 35 mhos 2605 - None None - -
07/25/2017 08:58 Dry 63.5F - 78F - - - - - - 34 mhos 2622 - None None - -
Date/Time
(MDT)
Sf
Temp Chem Water Layer Surface Precipitation
Sfc Pvt Sub Frz Factor Pct Dpth DpthThk IcePct Cond Salin FI Type Intens Accum Rate
07/25/2017 08:55 Dry 63.3F - 78F - - - - - - 34 mhos 2609 - None None - -
07/25/2017 08:48 Dry 62.6F - 78F - - - - - - 34 mhos 2630 - None None - -
07/25/2017 08:40 Dry 61.7F - 78F - - - - - - 32 mhos 2491 - None None - -
07/25/2017 08:38 Dry 61.5F - 78F - - - - - - 32 mhos 2449 - None None - -
07/25/2017 08:28 Dry 60.6F - 78F - - - - - - 30 mhos 2345 - Yes - - -
07/25/2017 08:25 Dry 60.3F - 78F - - - - - - 29 mhos 2212 - Yes - - -
07/25/2017 08:18 Wet 59.9F - 78F 30F 95 7% 0.30 in - 0% 26 mhos 2032 - None None - -
07/25/2017 08:10 Wet 59.9F - 78F 32F 5 2% 0.70 in - 0% 7 mhos 498 - Yes - - -
07/25/2017 08:08 Wet 59.9F - 78F 32F 95 0% 0.00 in - 0% 1 mhos 54 - Yes - - -
07/25/2017 07:58 Dry 59.9F - 78F - - - - - - 36 mhos 2881 - None None - -
07/25/2017 07:55 Dry 59.9F - 78F - - - - - - 36 mhos 2886 - None None - -
07/25/2017 07:48 Dry 59.9F - 78F - - - - - - 37 mhos 2926 - None None - -
07/25/2017 07:40 Dry 59.7F - 78F - - - - - - 36 mhos 2912 - None None - -
07/25/2017 07:38 Dry 59.5F - 78F - - - - - - 37 mhos 2939 - None None - -
07/25/2017 07:27 Dry 58.6F - 78F - - - - - - 36 mhos 2943 - None None - -
Date/Time
(MDT)
Sf
Temp Chem Water Layer Surface Precipitation
Sfc Pvt Sub Frz Factor Pct Dpth DpthThk IcePct Cond Salin FI Type Intens Accum Rate
07/25/2017 07:25 Dry 58.6F - 78F - - - - - - 36 mhos 2948 - None None - -
07/25/2017 07:17 Dry 58.1F - 78F - - - - - - 37 mhos 2986 - None None - -
07/25/2017 07:10 Dry 57.7F - 78F - - - - - - 37 mhos 2997 - None None - -
07/25/2017 07:07 Dry 57.6F - 78F - - - - - - 37 mhos 3002 - None None - -
07/25/2017 06:57 Dry 57.4F - 79F - - - - - - 37 mhos 3007 - None None - -
07/25/2017 06:55 Dry 57.4F - 79F - - - - - - 37 mhos 3007 - None None - -
07/25/2017 06:47 Dry 57.2F - 79F - - - - - - 36 mhos 2996 - None None - -
07/25/2017 06:40 Dry 57.2F - 79F - - - - - - 37 mhos 3018 - None None - -
07/25/2017 06:37 Dry 57.0F - 79F - - - - - - 37 mhos 3024 - None None - -
07/25/2017 06:27 Dry 56.8F - 79F - - - - - - 37 mhos 3029 - None None - -
07/25/2017 06:25 Dry 56.8F - 79F - - - - - - 37 mhos 3029 - None None - -
07/25/2017 06:17 Dry 56.5F - 79F - - - - - - 37 mhos 3063 - None None - -
07/25/2017 06:10 Dry 56.3F - 79F - - - - - - 37 mhos 3068 - None None - -
07/25/2017 06:07 Dry 56.3F - 79F - - - - - - 37 mhos 3068 - None None - -
07/25/2017 05:57 Dry 56.3F - 79F - - - - - - 1 mhos 54 - None None - -
Date/Time
(MDT)
Sf
Temp Chem Water Layer Surface Precipitation
Sfc Pvt Sub Frz Factor Pct Dpth DpthThk IcePct Cond Salin FI Type Intens Accum Rate
07/25/2017 05:55 Dry 56.5F - 79F - - - - - - 1 mhos 54 - None None - -
07/25/2017 05:47 Dry 56.5F - 79F - - - - - - 1 mhos 54 - None None - -
07/25/2017 05:40 Dry 56.7F - 79F - - - - - - 1 mhos 54 - None None - -
07/25/2017 05:37 Dry 56.8F - 79F - - - - - - 1 mhos 54 - None None - -
07/25/2017 05:27 Dry 57.4F - 79F - - - - - - 1 mhos 54 - None None - -
07/25/2017 05:25 Dry 57.4F - 79F - - - - - - 1 mhos 54 - None None - -
07/25/2017 05:17 Dry 57.7F - 79F - - - - - - 1 mhos 53 - None None - -
07/25/2017 05:10 Dry 58.1F - 79F - - - - - - 37 mhos 3030 - None None - -
07/25/2017 05:07 Dry 58.3F - 80F - - - - - - 37 mhos 3047 - None None - -
07/25/2017 04:56 Dry 58.6F - 80F - - - - - - 37 mhos 3031 - None None - -
07/25/2017 04:55 Dry 58.6F - 80F - - - - - - 38 mhos 3053 - None None - -
07/25/2017 04:46 Dry 58.8F - 80F - - - - - - 38 mhos 3051 - None None - -
07/25/2017 04:40 Dry 59.0F - 80F - - - - - - 38 mhos 3042 - None None - -
07/25/2017 04:36 Dry 59.0F - 80F - - - - - - 38 mhos 3042 - None None - -
07/25/2017 04:26 Dry 59.4F - 80F - - - - - - 38 mhos 3031 - None None - -
Date/Time
(MDT)
Sf
Temp Chem Water Layer Surface Precipitation
Sfc Pvt Sub Frz Factor Pct Dpth DpthThk IcePct Cond Salin FI Type Intens Accum Rate
07/25/2017 04:25 Dry 59.4F - 80F - - - - - - 38 mhos 3031 - None None - -
07/25/2017 04:16 Dry 59.5F - 80F - - - - - - 38 mhos 3049 - None None - -
07/25/2017 04:10 Dry 59.9F - 80F - - - - - - 38 mhos 3038 - None None - -
07/25/2017 04:06 Dry 59.7F - 80F - - - - - - 38 mhos 3021 - None None - -
07/25/2017 03:56 Dry 60.3F - 80F - - - - - - 38 mhos 2999 - None None - -
07/25/2017 03:55 Dry 60.3F - 80F - - - - - - 38 mhos 3022 - None None - -
07/25/2017 03:46 Dry 60.4F - 80F - - - - - - 38 mhos 3014 - None None - -
07/25/2017 03:40 Dry 61.0F - 80F - - - - - - 38 mhos 3001 - None None - -
07/25/2017 03:36 Dry 61.0F - 80F - - - - - - 38 mhos 3001 - None None - -
07/25/2017 03:26 Dry 61.0F - 80F - - - - - - 38 mhos 2996 - None None - -
07/25/2017 03:25 Dry 61.0F - 80F - - - - - - 38 mhos 2996 - None None - -
07/25/2017 03:16 Dry 61.0F - 80F - - - - - - 38 mhos 2996 - None None - -
07/25/2017 03:10 Dry 61.2F - 80F - - - - - - 38 mhos 2991 - None None - -
07/25/2017 03:06 Dry 61.2F - 80F - - - - - - 38 mhos 2991 - None None - -
07/25/2017 02:56 Dry 61.2F - 80F - - - - - - 38 mhos 2991 - None None - -
Date/Time
(MDT)
Sf
Temp Chem Water Layer Surface Precipitation
Sfc Pvt Sub Frz Factor Pct Dpth DpthThk IcePct Cond Salin FI Type Intens Accum Rate
07/25/2017 02:55 Dry 61.2F - 80F - - - - - - 38 mhos 2991 - None None - -
07/25/2017 02:46 Dry 61.3F - 80F - - - - - - 38 mhos 2985 - None None - -
07/25/2017 02:40 Dry 61.3F - 81F - - - - - - 38 mhos 2985 - None None - -
07/25/2017 02:36 Dry 61.5F - 81F - - - - - - 38 mhos 2980 - None None - -
07/25/2017 02:26 Dry 61.7F - 81F - - - - - - 38 mhos 2975 - None None - -
07/25/2017 02:25 Dry 61.7F - 81F - - - - - - 38 mhos 2975 - None None - -
07/25/2017 02:16 Dry 62.1F - 81F - - - - - - 38 mhos 2965 - None None - -
07/25/2017 02:10 Dry 61.9F - 81F - - - - - - 38 mhos 2970 - None None - -
07/25/2017 02:05 Dry 61.9F - 81F - - - - - - 38 mhos 2970 - None None - -
07/25/2017 01:55 Dry 62.1F - 81F - - - - - - 38 mhos 2965 - None None - -
07/25/2017 01:55 Dry 62.1F - 81F - - - - - - 38 mhos 2965 - None None - -
07/25/2017 01:45 Dry 62.1F - 81F - - - - - - 38 mhos 2943 - None None - -
07/25/2017 01:40 Dry 62.1F - 81F - - - - - - 38 mhos 2965 - None None - -
07/25/2017 01:35 Dry 62.1F - 81F - - - - - - 38 mhos 2960 - None None - -
07/25/2017 01:25 Dry 62.4F - 81F - - - - - - 38 mhos 2950 - None None - -
Date/Time
(MDT)
Sf
Temp Chem Water Layer Surface Precipitation
Sfc Pvt Sub Frz Factor Pct Dpth DpthThk IcePct Cond Salin FI Type Intens Accum Rate
07/25/2017 01:25 Dry 62.4F - 81F - - - - - - 38 mhos 2950 - None None - -
07/25/2017 01:15 Dry 62.4F - 81F - - - - - - 38 mhos 2950 - None None - -
07/25/2017 01:10 Dry 62.6F - 81F - - - - - - 38 mhos 2945 - None None - -
07/25/2017 01:05 Dry 62.8F - 81F - - - - - - 38 mhos 2918 - None None - -
07/25/2017 00:55 Dry 63.1F - 81F - - - - - - 38 mhos 2974 - None None - -
07/25/2017 00:55 Dry 63.1F - 81F - - - - - - 38 mhos 2974 - None None - -
07/25/2017 00:45 Dry 63.3F - 81F - - - - - - 38 mhos 2964 - None None - -
07/25/2017 00:40 Dry 63.7F - 81F - - - - - - 38 mhos 2954 - None None - -
07/25/2017 00:35 Dry 63.9F - 81F - - - - - - 38 mhos 2927 - None None - -
07/25/2017 00:25 Dry 64.0F - 81F - - - - - - 38 mhos 2944 - None None - -
07/25/2017 00:25 Dry 64.0F - 81F - - - - - - 38 mhos 2944 - None None - -
07/25/2017 00:15 Dry 64.2F - 81F - - - - - - 38 mhos 2940 - None None - -
07/25/2017 00:10 Dry 64.2F - 81F - - - - - - 38 mhos 2940 - Yes - - -
07/25/2017 00:05 Dry 64.4F - 81F - - - - - - 38 mhos 2930 - None None - -
07/24/2017 23:55 Dry 64.6F - 81F - - - - - - 38 mhos 2925 - None None - -
Date/Time
(MDT)
Sf
Temp Chem Water Layer Surface Precipitation
Sfc Pvt Sub Frz Factor Pct Dpth DpthThk IcePct Cond Salin FI Type Intens Accum Rate
07/24/2017 23:55 Dry 64.6F - 81F - - - - - - 38 mhos 2925 - None None - -
07/24/2017 23:45 Dry 64.6F - 81F - - - - - - 38 mhos 2925 - None None - -
07/24/2017 23:40 Dry 64.6F - 81F - - - - - - 38 mhos 2925 - None None - -
07/24/2017 23:34 Dry 64.6F - 82F - - - - - - 38 mhos 2925 - None None - -
07/24/2017 23:25 Dry 64.8F - 81F - - - - - - 38 mhos 2920 - None None - -
07/24/2017 23:24 Dry 64.8F - 82F - - - - - - 38 mhos 2920 - None None - -
07/24/2017 23:14 Dry 64.8F - 82F - - - - - - 38 mhos 2920 - None None - -
07/24/2017 23:10 Dry 64.6F - 82F - - - - - - 38 mhos 2925 - None None - -
07/24/2017 23:04 Dry 64.8F - 82F - - - - - - 38 mhos 2920 - None None - -
07/24/2017 22:55 Dry 65.3F - 82F - - - - - - 38 mhos 2905 - None None - -
07/24/2017 22:54 Dry 65.5F - 82F - - - - - - 38 mhos 2901 - None None - -
07/24/2017 22:44 Dry 65.7F - 82F - - - - - - 38 mhos 2891 - None None - -
07/24/2017 22:40 Dry 65.8F - 82F - - - - - - 38 mhos 2886 - None None - -
07/24/2017 22:34 Dry 66.2F - 82F - - - - - - 38 mhos 2877 - None None - -
07/24/2017 22:25 Dry 66.7F - 82F - - - - - - 38 mhos 2863 - None None - -
Date/Time
(MDT)
Sf
Temp Chem Water Layer Surface Precipitation
Sfc Pvt Sub Frz Factor Pct Dpth DpthThk IcePct Cond Salin FI Type Intens Accum Rate
07/24/2017 22:24 Dry 66.7F - 82F - - - - - - 38 mhos 2858 - None None - -
07/24/2017 22:14 Dry 67.1F - 82F - - - - - - 38 mhos 2849 - None None - -
07/24/2017 22:10 Dry 67.3F - 82F - - - - - - 38 mhos 2823 - None None - -
07/24/2017 22:04 Dry 67.6F - 82F - - - - - - 38 mhos 2814 - None None - -
07/24/2017 21:55 Dry 68.0F - 81F - - - - - - 38 mhos 2800 - None None - -
07/24/2017 21:54 Dry 68.0F - 81F - - - - - - 38 mhos 2800 - None None - -
07/24/2017 21:44 Dry 68.9F - 81F - - - - - - 38 mhos 2778 - None None - -
07/24/2017 21:40 Dry 69.1F - 81F - - - - - - 38 mhos 2769 - None None - -
07/24/2017 21:34 Dry 69.8F - 81F - - - - - - 38 mhos 2752 - None None - -
07/24/2017 21:25 Dry 70.3F - 81F - - - - - - 38 mhos 2715 - None None - -
07/24/2017 21:24 Dry 70.5F - 81F - - - - - - 38 mhos 2710 - None None - -
07/24/2017 21:14 Dry 71.6F - 81F - - - - - - 38 mhos 2681 - None None - -
07/24/2017 21:10 Dry 72.0F - 81F - - - - - - 38 mhos 2653 - None None - -
07/24/2017 21:04 Dry 72.7F - 81F - - - - - - 38 mhos 2633 - None None - -
07/24/2017 20:55 Dry 74.1F - 81F - - - - - - 37 mhos 2579 - None None - -
Date/Time
(MDT)
Sf
Temp Chem Water Layer Surface Precipitation
Sfc Pvt Sub Frz Factor Pct Dpth DpthThk IcePct Cond Salin FI Type Intens Accum Rate
07/24/2017 20:53 Dry 74.3F - 81F - - - - - - 37 mhos 2576 - None None - -
07/24/2017 20:43 Error - - 81F - - - - - - - - - None None - -
07/24/2017 20:40 Error - - 81F - - - - - - - - - None None - -
07/24/2017 20:33 Error - - 81F - - - - - - - - - None None - -
07/24/2017 20:25 Dry 77.9F - 81F - - - - - - 37 mhos 2451 - None None - -
07/24/2017 20:23 Dry 78.3F - 81F - - - - - - 37 mhos 2444 - None None - -
07/24/2017 20:13 Dry 80.2F - 81F - - - - - - 37 mhos 2383 - None None - -
07/24/2017 20:10 Dry 81.5F - 81F - - - - - - 36 mhos 2340 - None None - -
07/24/2017 20:03 Dry 82.8F - 81F - - - - - - 36 mhos 2315 - None None - -
07/24/2017 19:55 Dry 83.7F - 81F - - - - - - 36 mhos 2293 - None None - -
07/24/2017 19:53 Dry 84.0F - 81F - - - - - - 36 mhos 2271 - None None - -
07/24/2017 19:43 Dry 84.4F - 81F - - - - - - 36 mhos 2265 - None None - -
07/24/2017 19:40 Dry 83.5F - 81F - - - - - - 36 mhos 2283 - None None - -
07/24/2017 19:33 Dry 85.6F - 81F - - - - - - 36 mhos 2226 - None None - -
07/24/2017 19:25 Dry 86.7F - 81F - - - - - - 36 mhos 2187 - None None - -
Date/Time
(MDT)
Sf
Temp Chem Water Layer Surface Precipitation
Sfc Pvt Sub Frz Factor Pct Dpth DpthThk IcePct Cond Salin FI Type Intens Accum Rate
07/24/2017 19:23 Dry 86.7F - 81F - - - - - - 1 mhos 46 - None None - -
07/24/2017 19:13 Dry 87.8F - 81F - - - - - - 1 mhos 42 - None None - -
07/24/2017 19:10 Dry 87.8F - 81F - - - - - - 1 mhos 42 - None None - -
07/24/2017 19:03 Dry 88.5F - 81F - - - - - - 36 mhos 2142 - None None - -
07/24/2017 18:55 Dry 89.8F - 81F - - - - - - 35 mhos 2103 - None None - -
07/24/2017 18:53 Dry 90.1F - 81F - - - - - - 35 mhos 2098 - None None - -
07/24/2017 18:43 Dry 91.9F - 81F - - - - - - 35 mhos 2053 - None None - -
07/24/2017 18:40 Dry 92.1F - 81F - - - - - - 35 mhos 2051 - None None - -
07/24/2017 18:33 Dry 90.7F - 81F - - - - - - 35 mhos 2073 - None None - -
07/24/2017 18:25 Dry 93.6F - 81F - - - - - - 35 mhos 2012 - None None - -
07/24/2017 18:23 Dry 91.9F - 81F - - - - - - 35 mhos 2053 - None None - -
07/24/2017 18:13 Dry 95.4F - 81F - - - - - - 35 mhos 1971 - None None - -
07/24/2017 18:10 Dry 95.2F - 81F - - - - - - 35 mhos 1974 - None None - -
07/24/2017 18:03 Dry 94.6F - 81F - - - - - - 35 mhos 1983 - None None - -
07/24/2017 17:55 Dry 96.3F - 81F - - - - - - 34 mhos 1944 - None None - -
Date/Time
(MDT)
Sf
Temp Chem Water Layer Surface Precipitation
Sfc Pvt Sub Frz Factor Pct Dpth DpthThk IcePct Cond Salin FI Type Intens Accum Rate
07/24/2017 17:52 Dry 96.6F - 81F - - - - - - 34 mhos 1940 - None None - -
07/24/2017 17:42 Dry 94.5F - 81F - - - - - - 35 mhos 1986 - None None - -
07/24/2017 17:40 Dry 95.5F - 81F - - - - - - 35 mhos 1969 - None None - -
07/24/2017 17:32 Dry 95.7F - 81F - - - - - - 35 mhos 1967 - None None - -
07/24/2017 17:25 Dry 92.7F - 81F - - - - - - 35 mhos 2040 - None None - -
07/24/2017 17:22 Dry 92.5F - 81F - - - - - - 35 mhos 2042 - None None - -
07/24/2017 17:12 Dry 90.3F - 80F - - - - - - 35 mhos 2095 - None None - -
07/24/2017 17:10 Dry 91.2F - 80F - - - - - - 35 mhos 2079 - None None - -
07/24/2017 17:02 Dry 90.3F - 80F - - - - - - 35 mhos 2095 - None None - -
07/24/2017 16:55 Dry 90.3F - 80F - - - - - - 35 mhos 2095 - None None - -
07/24/2017 16:52 Dry 90.7F - 80F - - - - - - 35 mhos 2090 - None None - -
07/24/2017 16:42 Dry 92.1F - 80F - - - - - - 35 mhos 2064 - None None - -
07/24/2017 16:40 Dry 95.5F - 80F - - - - - - 1 mhos 40 - None None - -
Change End Date:

Copyright © 1998-2015 Vaisala, Inc.
All Rights Reserved
Send comments about the data to:
SCAN Web ® is a registered trademark of Vaisala, Inc.
SCAN Web Version 6.0